Time;durP1;ratioP1;P1;durP2;ratioP2;P2;SDS_P1;SDS_P2;PMS_P1;PMS_P2;Temp;Humidity;BMP_temperature;BMP_pressure;BME280_temperature;BME280_humidity;BME280_pressure;Samples;Min_cycle;Max_cycle;Signal;HPM_P1;HPM_P2
2022/07/20 00:01:09;;;;;;;1.80;1.70;;;26.70;64.50;;;;;;5096746;28;20538;-90
2022/07/20 00:03:38;;;;;;;2.40;1.63;;;26.70;64.50;;;;;;5096830;28;20452;-90
2022/07/20 00:06:05;;;;;;;1.77;1.67;;;26.70;64.50;;;;;;5096601;28;20476;-90
2022/07/20 00:11:22;;;;;;;1.40;1.30;;;26.70;64.70;;;;;;5096584;28;20497;-92
2022/07/20 00:13:53;;;;;;;1.70;1.60;;;26.70;64.70;;;;;;5096313;28;20529;-92
2022/07/20 00:16:20;;;;;;;1.77;1.67;;;26.70;64.70;;;;;;5096588;28;20432;-90
2022/07/20 00:18:48;;;;;;;1.33;1.23;;;26.70;65.60;;;;;;5096300;28;20450;-92
2022/07/20 00:21:15;;;;;;;3.50;2.10;;;26.70;65.50;;;;;;5096620;28;20526;-90
2022/07/20 00:23:42;;;;;;;1.60;1.50;;;26.70;64.60;;;;;;5096538;28;20452;-90
2022/07/20 00:26:10;;;;;;;2.00;1.70;;;26.70;64.60;;;;;;5096766;28;20450;-91
2022/07/20 00:28:37;;;;;;;2.23;1.83;;;26.70;64.70;;;;;;5097404;28;20444;-91
2022/07/20 00:31:05;;;;;;;1.63;1.53;;;26.70;64.70;;;;;;5096024;28;20440;-92
2022/07/20 00:33:34;;;;;;;1.83;1.43;;;26.70;64.70;;;;;;5095938;28;20478;-90
2022/07/20 00:36:03;;;;;;;1.63;1.53;;;26.70;64.40;;;;;;5096366;28;20448;-91
2022/07/20 00:38:31;;;;;;;1.87;1.77;;;26.70;64.50;;;;;;5096098;28;20446;-90
2022/07/20 00:40:58;;;;;;;1.57;1.47;;;26.70;64.60;;;;;;5096119;28;20792;-92
2022/07/20 00:43:25;;;;;;;1.73;1.63;;;26.70;64.70;;;;;;5095934;28;20467;-90
2022/07/20 00:45:52;;;;;;;1.97;1.87;;;26.70;64.70;;;;;;5096239;28;20448;-90
2022/07/20 00:48:19;;;;;;;1.80;1.70;;;26.70;64.70;;;;;;5095952;28;20446;-91
2022/07/20 00:50:46;;;;;;;1.77;1.67;;;26.70;64.60;;;;;;5095645;28;20478;-90
2022/07/20 00:53:14;;;;;;;2.17;1.47;;;26.70;64.60;;;;;;5095798;28;20931;-90
2022/07/20 00:55:43;;;;;;;1.77;1.67;;;26.70;64.70;;;;;;5095652;28;20539;-91
2022/07/20 00:58:09;;;;;;;1.87;1.77;;;26.70;64.70;;;;;;5095701;28;20468;-90
2022/07/20 01:00:37;;;;;;;1.80;1.70;;;26.70;64.50;;;;;;5095615;28;20440;-90
2022/07/20 01:03:04;;;;;;;1.73;1.63;;;26.70;64.60;;;;;;5095622;28;20448;-91
2022/07/20 01:05:31;;;;;;;1.50;1.40;;;26.70;64.70;;;;;;5095223;28;20992;-90
2022/07/20 01:07:58;;;;;;;1.80;1.70;;;26.70;64.70;;;;;;5095649;28;20428;-91
2022/07/20 01:10:27;;;;;;;2.07;1.97;;;26.70;64.70;;;;;;5095305;28;20452;-90
2022/07/20 01:12:54;;;;;;;3.43;1.53;;;26.70;64.60;;;;;;5095335;28;20518;-92
2022/07/20 01:15:21;;;;;;;1.93;1.83;;;26.70;64.70;;;;;;5095244;28;20515;-92
2022/07/20 01:17:47;;;;;;;1.70;1.60;;;26.70;64.70;;;;;;5095446;28;20531;-91
2022/07/20 01:20:17;;;;;;;1.67;1.57;;;26.70;64.70;;;;;;5095158;28;20543;-92
2022/07/20 01:22:46;;;;;;;2.00;1.90;;;26.70;64.70;;;;;;5095024;28;20544;-92
2022/07/20 01:25:14;;;;;;;2.10;1.90;;;26.80;64.70;;;;;;5095432;28;20454;-90
2022/07/20 01:27:41;;;;;;;1.50;1.40;;;26.80;64.70;;;;;;5094933;28;20440;-90
2022/07/20 01:30:09;;;;;;;1.83;1.73;;;26.70;64.60;;;;;;5094286;28;20531;-91
2022/07/20 01:32:36;;;;;;;1.77;1.67;;;26.80;64.60;;;;;;5094432;28;20451;-90
2022/07/20 01:35:03;;;;;;;1.70;1.60;;;26.70;64.60;;;;;;5094785;28;20486;-91
2022/07/20 01:37:30;;;;;;;1.77;1.63;;;26.70;64.50;;;;;;5094922;28;20436;-92
2022/07/20 01:39:58;;;;;;;1.60;1.50;;;26.70;64.50;;;;;;5095843;28;20455;-91
2022/07/20 01:42:25;;;;;;;1.60;1.50;;;26.70;64.40;;;;;;5094758;28;20470;-90
2022/07/20 01:44:52;;;;;;;1.97;1.70;;;26.70;64.50;;;;;;5094636;28;20522;-91
2022/07/20 01:47:19;;;;;;;1.70;1.60;;;26.70;64.50;;;;;;5094743;28;20543;-90
2022/07/20 01:49:46;;;;;;;2.20;2.10;;;26.80;64.70;;;;;;5094345;28;20828;-91
2022/07/20 01:52:13;;;;;;;2.07;1.97;;;26.70;64.50;;;;;;5094662;28;20466;-90
2022/07/20 01:54:40;;;;;;;1.77;1.67;;;26.70;64.50;;;;;;5094455;28;20519;-90
2022/07/20 01:57:08;;;;;;;1.80;1.70;;;26.70;64.50;;;;;;5094256;28;20464;-92
2022/07/20 01:59:35;;;;;;;2.03;1.93;;;26.80;64.60;;;;;;5094906;28;20567;-91
2022/07/20 02:02:02;;;;;;;1.87;1.77;;;26.70;64.50;;;;;;5094545;28;20531;-90
2022/07/20 02:04:29;;;;;;;2.07;1.97;;;26.70;64.40;;;;;;5094128;28;20454;-92
2022/07/20 02:06:56;;;;;;;2.10;2.00;;;26.70;64.80;;;;;;5094078;28;20548;-91
2022/07/20 02:09:23;;;;;;;1.60;1.50;;;26.70;64.40;;;;;;5094493;28;20541;-90
2022/07/20 02:11:50;;;;;;;2.90;2.10;;;26.70;64.50;;;;;;5094066;28;20535;-91
2022/07/20 02:14:18;;;;;;;2.17;2.07;;;26.70;64.50;;;;;;5094053;28;20562;-92
2022/07/20 02:16:45;;;;;;;2.10;2.00;;;26.70;64.50;;;;;;5094342;28;20490;-92
2022/07/20 02:19:12;;;;;;;1.97;1.77;;;26.70;64.50;;;;;;5093857;28;20886;-91
2022/07/20 02:21:39;;;;;;;2.00;1.90;;;26.70;64.50;;;;;;5093376;28;20531;-92
2022/07/20 02:24:06;;;;;;;2.00;1.90;;;26.70;65.30;;;;;;5094110;28;20474;-90
2022/07/20 02:26:33;;;;;;;2.30;2.10;;;26.70;64.40;;;;;;5094095;28;20579;-89
2022/07/20 02:29:00;;;;;;;2.00;1.90;;;26.70;64.40;;;;;;5093950;28;20931;-90
2022/07/20 02:31:28;;;;;;;1.97;1.87;;;26.70;64.30;;;;;;5093812;28;20997;-90
2022/07/20 02:33:55;;;;;;;2.00;1.90;;;26.70;64.30;;;;;;5093744;28;20444;-90
2022/07/20 02:36:21;;;;;;;2.00;1.90;;;26.70;64.30;;;;;;5094040;28;20864;-91
2022/07/20 02:38:48;;;;;;;2.03;1.93;;;26.70;64.30;;;;;;5093567;28;20440;-92
2022/07/20 02:41:15;;;;;;;1.50;1.40;;;26.70;64.20;;;;;;5093562;28;20531;-90
2022/07/20 02:43:42;;;;;;;1.73;1.63;;;26.70;64.30;;;;;;5093925;28;21000;-91
2022/07/20 02:46:09;;;;;;;2.00;1.90;;;26.70;64.40;;;;;;5093980;28;20471;-92
2022/07/20 02:48:38;;;;;;;1.53;1.43;;;26.70;64.30;;;;;;5093857;28;20530;-90
2022/07/20 02:51:05;;;;;;;1.90;1.80;;;26.70;64.30;;;;;;5094720;28;20439;-90
2022/07/20 02:53:32;;;;;;;2.00;1.90;;;26.70;64.30;;;;;;5093543;28;20918;-92
2022/07/20 02:55:59;;;;;;;1.83;1.73;;;26.70;64.30;;;;;;5093175;28;20579;-91
2022/07/20 02:58:26;;;;;;;1.50;1.40;;;26.70;64.30;;;;;;5093755;28;20822;-90
2022/07/20 03:00:53;;;;;;;1.90;1.80;;;26.70;64.30;;;;;;5093731;28;20543;-91
2022/07/20 03:03:20;;;;;;;1.90;1.80;;;26.70;64.10;;;;;;5093629;28;20530;-91
2022/07/20 03:05:48;;;;;;;2.00;1.90;;;26.70;64.20;;;;;;5093474;28;20472;-90
2022/07/20 03:08:15;;;;;;;1.70;1.60;;;26.70;64.20;;;;;;5094369;28;20839;-90
2022/07/20 03:10:41;;;;;;;1.97;1.87;;;26.70;64.20;;;;;;5093467;28;20882;-91
2022/07/20 03:13:08;;;;;;;2.20;2.00;;;26.70;64.20;;;;;;5093486;28;20464;-90
2022/07/20 03:15:35;;;;;;;2.30;2.20;;;26.70;64.10;;;;;;5093247;28;20480;-90
2022/07/20 03:18:02;;;;;;;1.93;1.83;;;26.70;64.10;;;;;;5093201;28;20487;-92
2022/07/20 03:20:31;;;;;;;1.87;1.77;;;26.70;64.10;;;;;;5093510;28;20454;-92
2022/07/20 03:23:02;;;;;;;2.07;1.97;;;26.70;64.00;;;;;;5093449;28;20456;-90
2022/07/20 03:25:29;;;;;;;2.10;2.00;;;26.70;64.10;;;;;;5093336;28;20450;-90
2022/07/20 03:27:57;;;;;;;2.00;1.90;;;26.70;64.10;;;;;;5093664;28;20454;-90
2022/07/20 03:30:25;;;;;;;1.80;1.70;;;26.70;64.10;;;;;;5093173;28;20866;-89
2022/07/20 03:32:54;;;;;;;2.13;2.03;;;26.70;64.10;;;;;;5093116;28;20805;-90
2022/07/20 03:35:21;;;;;;;1.70;1.60;;;26.70;64.20;;;;;;5093291;28;21013;-90
2022/07/20 03:37:48;;;;;;;2.07;1.97;;;26.70;64.10;;;;;;5093400;28;20731;-90
2022/07/20 03:40:16;;;;;;;1.93;1.83;;;26.70;64.10;;;;;;5093151;28;20446;-91
2022/07/20 03:42:43;;;;;;;1.80;1.70;;;26.70;64.10;;;;;;5093167;28;20506;-90
2022/07/20 03:45:11;;;;;;;1.80;1.70;;;26.70;64.10;;;;;;5093193;28;20440;-90
2022/07/20 03:47:38;;;;;;;2.10;2.00;;;26.70;64.10;;;;;;5093449;28;20440;-90
2022/07/20 03:50:05;;;;;;;2.40;2.30;;;26.70;64.10;;;;;;5093013;28;20528;-90
2022/07/20 03:52:32;;;;;;;1.87;1.77;;;26.70;64.10;;;;;;5095179;28;20523;-90
2022/07/20 03:54:59;;;;;;;1.90;1.80;;;26.70;64.20;;;;;;5096735;28;20814;-92
2022/07/20 03:57:27;;;;;;;1.70;1.60;;;26.70;64.20;;;;;;5096939;28;20476;-91
2022/07/20 03:59:54;;;;;;;2.07;1.97;;;26.70;64.20;;;;;;5096946;28;20530;-91
2022/07/20 04:02:21;;;;;;;2.20;2.00;;;26.70;64.10;;;;;;5096384;28;20444;-91
2022/07/20 04:04:48;;;;;;;2.20;2.10;;;26.70;64.10;;;;;;5097708;28;20454;-91
2022/07/20 04:07:15;;;;;;;1.77;1.67;;;26.70;64.20;;;;;;5096257;28;20562;-90
2022/07/20 04:09:44;;;;;;;2.00;1.90;;;26.70;64.10;;;;;;5096497;28;20801;-90
2022/07/20 04:12:13;;;;;;;2.10;2.00;;;26.70;64.10;;;;;;5096541;28;20468;-90
2022/07/20 04:14:42;;;;;;;2.17;1.83;;;26.70;64.20;;;;;;5096507;28;20479;-91
2022/07/20 04:17:09;;;;;;;2.10;2.00;;;26.70;64.20;;;;;;5096971;28;20945;-90
2022/07/20 04:19:36;;;;;;;1.90;1.80;;;26.70;64.30;;;;;;5096540;28;21002;-91
2022/07/20 04:22:04;;;;;;;2.17;2.07;;;26.70;64.20;;;;;;5096245;28;20891;-91
2022/07/20 04:24:31;;;;;;;2.33;2.13;;;26.70;64.20;;;;;;5096935;28;20547;-90
2022/07/20 04:26:58;;;;;;;1.80;1.70;;;26.50;64.10;;;;;;5096230;28;20523;-90
2022/07/20 04:29:25;;;;;;;1.53;1.43;;;26.70;64.20;;;;;;5096143;28;20439;-91
2022/07/20 04:31:53;;;;;;;2.00;1.90;;;26.70;64.20;;;;;;5096256;28;20518;-92
2022/07/20 04:34:20;;;;;;;1.73;1.63;;;26.70;64.20;;;;;;5095827;28;20447;-91
2022/07/20 04:36:47;;;;;;;2.10;1.90;;;26.70;64.30;;;;;;5095952;28;20443;-92
2022/07/20 04:39:15;;;;;;;2.50;2.33;;;26.70;64.30;;;;;;5095712;28;20930;-90
2022/07/20 04:41:42;;;;;;;1.70;1.60;;;26.70;64.20;;;;;;5096072;28;20872;-91
2022/07/20 04:44:09;;;;;;;2.43;2.23;;;26.70;64.20;;;;;;5096024;28;20534;-92
2022/07/20 04:46:36;;;;;;;1.93;1.83;;;26.70;64.30;;;;;;5095697;28;20547;-91
2022/07/20 04:49:04;;;;;;;2.10;2.00;;;26.70;64.30;;;;;;5095601;28;20534;-90
2022/07/20 04:51:31;;;;;;;2.67;2.47;;;26.70;64.30;;;;;;5095684;28;20535;-89
2022/07/20 04:53:58;;;;;;;2.20;2.00;;;26.70;64.30;;;;;;5095723;28;20444;-90
2022/07/20 04:56:25;;;;;;;2.07;1.97;;;26.70;64.40;;;;;;5096579;28;20602;-92
2022/07/20 04:58:54;;;;;;;2.10;1.90;;;26.70;64.40;;;;;;5095304;28;20452;-92
2022/07/20 05:01:22;;;;;;;1.90;1.80;;;26.70;64.50;;;;;;5092466;28;20444;-92
2022/07/20 05:03:49;;;;;;;2.30;2.10;;;26.70;64.60;;;;;;5094521;28;20444;-92
2022/07/20 05:06:18;;;;;;;2.13;2.00;;;26.70;64.60;;;;;;5095096;28;20563;-92
2022/07/20 05:08:45;;;;;;;2.60;2.40;;;26.70;64.60;;;;;;5095509;28;20482;-91
2022/07/20 05:11:13;;;;;;;2.30;2.20;;;26.70;64.70;;;;;;5095297;28;20806;-92
2022/07/20 05:13:40;;;;;;;1.97;1.87;;;26.70;64.70;;;;;;5095465;28;21054;-92
2022/07/20 05:16:07;;;;;;;1.97;1.83;;;26.70;64.70;;;;;;5084826;28;20563;-88
2022/07/20 05:18:35;;;;;;;2.10;2.00;;;26.70;64.70;;;;;;5095144;28;20490;-86
2022/07/20 05:21:01;;;;;;;2.10;1.90;;;26.70;64.70;;;;;;5095012;28;20440;-87
2022/07/20 05:23:30;;;;;;;2.53;2.33;;;26.70;65.10;;;;;;5095154;28;20838;-86
2022/07/20 05:25:56;;;;;;;2.40;2.20;;;26.70;64.70;;;;;;5094895;28;20435;-87
2022/07/20 05:28:23;;;;;;;2.10;2.00;;;26.70;64.80;;;;;;5094999;28;20535;-91
2022/07/20 05:30:51;;;;;;;2.00;1.90;;;26.70;64.90;;;;;;5095098;28;20526;-91
2022/07/20 05:33:18;;;;;;;2.30;2.10;;;26.70;64.90;;;;;;5094809;28;20530;-91
2022/07/20 05:35:46;;;;;;;2.13;2.00;;;26.70;65.00;;;;;;5094556;28;20482;-92
2022/07/20 05:38:13;;;;;;;1.70;1.60;;;26.70;65.20;;;;;;5094776;28;20544;-90
2022/07/20 05:40:41;;;;;;;2.33;2.13;;;26.70;65.20;;;;;;5094903;28;20471;-90
2022/07/20 05:43:08;;;;;;;2.07;1.97;;;26.70;65.30;;;;;;5094831;28;20552;-91
2022/07/20 05:45:35;;;;;;;2.30;2.10;;;26.70;65.40;;;;;;5094790;28;20526;-91
2022/07/20 05:48:02;;;;;;;2.00;1.90;;;26.70;65.40;;;;;;5094811;28;20447;-91
2022/07/20 05:50:29;;;;;;;1.90;1.80;;;26.70;66.40;;;;;;5094506;28;20475;-90
2022/07/20 05:52:56;;;;;;;2.20;2.10;;;26.70;65.60;;;;;;5094389;28;20532;-91
2022/07/20 05:55:23;;;;;;;3.40;1.90;;;26.70;65.50;;;;;;5094595;28;20476;-90
2022/07/20 05:57:51;;;;;;;2.47;2.27;;;26.70;65.50;;;;;;5094011;28;20444;-90
2022/07/20 06:00:18;;;;;;;2.13;1.93;;;26.70;65.60;;;;;;5094413;28;20476;-90
2022/07/20 06:02:45;;;;;;;2.10;1.90;;;26.70;65.50;;;;;;5094624;28;20440;-89
2022/07/20 06:05:12;;;;;;;4.70;2.17;;;26.70;65.70;;;;;;5094130;28;20436;-90
2022/07/20 06:07:39;;;;;;;2.20;2.00;;;26.70;65.80;;;;;;5095114;28;20436;-91
2022/07/20 06:10:07;;;;;;;2.93;2.20;;;26.70;65.90;;;;;;5086509;28;20618;-90
2022/07/20 06:12:34;;;;;;;2.43;2.10;;;26.80;66.00;;;;;;5094352;28;20464;-92
2022/07/20 06:15:03;;;;;;;3.20;2.30;;;26.80;65.70;;;;;;5093524;28;20478;-90
2022/07/20 06:17:34;;;;;;;2.60;2.40;;;26.80;65.80;;;;;;5094045;28;20531;-90
2022/07/20 06:20:05;;;;;;;2.00;1.90;;;26.70;65.70;;;;;;5094127;28;20510;-90
2022/07/20 06:22:33;;;;;;;1.80;1.70;;;26.70;65.60;;;;;;5094957;28;20440;-92
2022/07/20 06:24:59;;;;;;;2.63;2.10;;;26.70;65.70;;;;;;5094208;28;20519;-91
2022/07/20 06:27:26;;;;;;;6.47;2.40;;;26.80;65.80;;;;;;5093994;28;20872;-91
2022/07/20 06:29:53;;;;;;;3.10;1.97;;;26.70;65.80;;;;;;5093941;28;21018;-91
2022/07/20 06:32:21;;;;;;;4.40;2.07;;;26.70;65.90;;;;;;5093778;28;20519;-87
2022/07/20 06:34:48;;;;;;;3.20;2.53;;;26.80;66.10;;;;;;5078119;28;20543;-88
2022/07/20 06:37:15;;;;;;;3.00;2.80;;;26.70;66.10;;;;;;5073717;28;20571;-88
2022/07/20 06:39:42;;;;;;;2.70;2.50;;;26.70;66.20;;;;;;5073586;28;20441;-88
2022/07/20 06:42:09;;;;;;;3.63;2.83;;;26.80;66.40;;;;;;5073727;28;20467;-89
2022/07/20 06:44:37;;;;;;;2.97;2.77;;;26.80;66.30;;;;;;5074842;28;20449;-92
2022/07/20 10:29:32;;;;;;;6.33;5.83;;;26.80;67.80;;;;;;5082376;28;20466;-83
2022/07/20 10:32:01;;;;;;;7.20;6.50;;;26.80;67.90;;;;;;5092984;28;20488;-84
2022/07/20 10:34:32;;;;;;;8.17;7.47;;;26.80;68.00;;;;;;5093014;28;20530;-83
2022/07/20 10:37:25;;;;;;;6.70;6.20;;;26.80;67.80;;;;;;5093273;28;20488;-83
2022/07/20 10:39:53;;;;;;;7.10;6.60;;;26.90;67.80;;;;;;5092209;28;20527;-83
2022/07/20 10:42:27;;;;;;;7.53;6.80;;;26.80;67.70;;;;;;5092533;28;20547;-83
2022/07/20 10:45:32;;;;;;;11.17;6.83;;;26.90;67.70;;;;;;5092889;28;20445;-83
2022/07/20 10:48:16;;;;;;;14.70;6.90;;;26.90;67.60;;;;;;5092801;28;20849;-84
2022/07/20 10:50:44;;;;;;;6.67;6.07;;;26.90;67.70;;;;;;5092631;28;20535;-84
2022/07/20 10:53:37;;;;;;;8.07;5.93;;;26.90;67.80;;;;;;5092454;28;20448;-84
2022/07/20 10:56:07;;;;;;;8.03;7.23;;;26.90;67.60;;;;;;5078269;28;20480;-88
2022/07/20 11:02:02;;;;;;;7.70;6.90;;;26.90;67.60;;;;;;5075954;28;20907;-89
2022/07/20 11:04:30;;;;;;;11.77;6.83;;;26.90;67.90;;;;;;5078973;28;20527;-89
2022/07/20 11:06:57;;;;;;;6.87;6.27;;;26.90;67.90;;;;;;5081113;28;20528;-89
2022/07/20 11:09:31;;;;;;;7.83;6.67;;;26.90;68.00;;;;;;5098243;28;20436;-88
2022/07/20 11:11:58;;;;;;;7.00;6.40;;;26.90;67.90;;;;;;5104248;28;20444;-89
2022/07/20 11:14:25;;;;;;;7.37;6.67;;;26.90;67.90;;;;;;5117620;28;20433;-88
2022/07/20 11:16:55;;;;;;;8.60;7.00;;;26.90;67.90;;;;;;5097215;28;21002;-88
2022/07/20 11:19:24;;;;;;;8.43;7.47;;;27.00;68.00;;;;;;5077259;28;20535;-88
2022/07/20 11:21:52;;;;;;;7.57;6.80;;;27.00;68.00;;;;;;5085378;28;20534;-89
2022/07/20 11:24:23;;;;;;;7.13;6.40;;;27.00;68.00;;;;;;5086661;28;20442;-88
2022/07/20 11:26:52;;;;;;;10.30;6.57;;;27.00;68.10;;;;;;5097534;28;20428;-88
2022/07/20 11:29:19;;;;;;;10.87;7.60;;;27.00;68.10;;;;;;5097212;28;20977;-89
2022/07/20 11:31:46;;;;;;;17.70;11.40;;;27.00;68.10;;;;;;5097562;28;20448;-89
2022/07/20 11:34:14;;;;;;;47.63;33.47;;;27.00;68.10;;;;;;5097539;28;20443;-90
2022/07/20 11:36:42;;;;;;;137.73;88.33;;;27.00;68.40;;;;;;5097233;28;20838;-90
2022/07/20 11:39:11;;;;;;;163.80;109.10;;;27.00;68.80;;;;;;5097788;28;20531;-91
2022/07/20 11:41:40;;;;;;;350.70;259.57;;;27.00;68.80;;;;;;5096989;28;20483;-91
2022/07/20 11:44:09;;;;;;;480.77;389.10;;;27.00;69.20;;;;;;5097019;28;20955;-91
2022/07/20 11:46:40;;;;;;;565.87;495.37;;;27.00;69.50;;;;;;5097192;28;20436;-91
2022/07/20 11:49:09;;;;;;;512.37;406.00;;;27.00;69.80;;;;;;5097290;28;20432;-91
2022/07/20 11:51:37;;;;;;;537.23;434.53;;;27.00;70.00;;;;;;5097008;28;20870;-91
2022/07/20 11:54:06;;;;;;;549.67;442.57;;;27.00;70.10;;;;;;5118238;28;20503;-90
2022/07/20 11:56:35;;;;;;;544.80;442.40;;;27.00;70.10;;;;;;5120603;28;20486;-90
2022/07/20 11:59:03;;;;;;;548.77;430.80;;;27.00;70.50;;;;;;5100687;28;20871;-91
2022/07/20 12:01:32;;;;;;;534.37;432.93;;;27.10;70.60;;;;;;5096568;28;20942;-90
2022/07/20 12:04:01;;;;;;;536.30;424.30;;;27.10;70.70;;;;;;5096675;28;20546;-90
2022/07/20 12:06:30;;;;;;;515.37;415.43;;;27.00;70.50;;;;;;5096399;28;20440;-82
2022/07/20 12:09:04;;;;;;;357.33;252.57;;;27.10;70.70;;;;;;5096353;28;20439;-83
2022/07/20 12:11:32;;;;;;;396.90;281.23;;;27.10;71.10;;;;;;5096391;28;20811;-86
2022/07/20 12:13:59;;;;;;;438.70;332.07;;;27.10;71.00;;;;;;5095115;28;20436;-86
2022/07/20 12:16:37;;;;;;;461.03;351.97;;;27.10;70.90;;;;;;5096047;28;20626;-87
2022/07/20 12:19:05;;;;;;;457.07;337.27;;;27.10;70.90;;;;;;5096122;28;20440;-84
2022/07/20 12:21:42;;;;;;;452.30;342.20;;;27.10;70.70;;;;;;5096280;28;20784;-86
2022/07/20 12:24:09;;;;;;;402.80;292.10;;;27.10;70.60;;;;;;5096159;28;20442;-87
2022/07/20 12:26:37;;;;;;;429.63;321.97;;;27.10;70.60;;;;;;5096118;28;20440;-85
2022/07/20 12:29:18;;;;;;;425.07;313.20;;;27.10;70.60;;;;;;5096087;28;20474;-86
2022/07/20 12:31:45;;;;;;;396.93;308.40;;;27.10;70.40;;;;;;5082992;28;20441;-88
2022/07/20 12:34:14;;;;;;;377.60;297.57;;;27.10;70.40;;;;;;5076677;28;20447;-86
2022/07/20 12:36:43;;;;;;;398.13;298.73;;;27.10;70.50;;;;;;5095628;28;20510;-86
2022/07/20 12:39:12;;;;;;;395.77;290.43;;;27.10;70.50;;;;;;5095476;28;20454;-86
2022/07/20 12:41:42;;;;;;;354.60;278.10;;;27.10;70.60;;;;;;5095577;28;20812;-86
2022/07/20 12:44:26;;;;;;;357.00;276.77;;;27.10;70.60;;;;;;5095719;28;20432;-87
2022/07/20 12:46:54;;;;;;;366.37;271.97;;;27.20;70.50;;;;;;5095952;28;20440;-88
2022/07/20 12:49:21;;;;;;;329.67;264.57;;;27.10;70.50;;;;;;5095843;28;20443;-88
2022/07/20 12:51:48;;;;;;;358.13;257.37;;;27.10;70.50;;;;;;5096160;28;20440;-89
2022/07/20 12:54:15;;;;;;;341.70;259.37;;;27.10;70.40;;;;;;5096068;28;20436;-90
2022/07/20 12:56:44;;;;;;;332.60;243.50;;;27.10;70.30;;;;;;5095770;28;20506;-89
2022/07/20 12:59:11;;;;;;;333.73;248.50;;;27.20;70.40;;;;;;5095690;28;20443;-89
2022/07/20 13:01:38;;;;;;;313.50;234.97;;;27.20;70.40;;;;;;5096083;28;20880;-90
2022/07/20 13:04:05;;;;;;;289.53;230.40;;;27.20;70.40;;;;;;5095466;28;20446;-89
2022/07/20 13:06:33;;;;;;;285.07;217.37;;;27.20;70.40;;;;;;5095856;28;20463;-89
2022/07/20 13:09:00;;;;;;;289.53;220.80;;;27.20;70.30;;;;;;5095636;28;20468;-89
2022/07/20 13:11:27;;;;;;;288.43;221.80;;;27.20;70.40;;;;;;5095550;28;20456;-90
2022/07/20 13:13:55;;;;;;;283.13;208.73;;;27.20;70.40;;;;;;5095468;28;20454;-90
2022/07/20 13:16:22;;;;;;;292.20;206.70;;;27.20;70.30;;;;;;5095143;28;20486;-88
2022/07/20 13:18:49;;;;;;;265.33;195.03;;;27.20;70.30;;;;;;5095508;28;20433;-89
2022/07/20 13:21:16;;;;;;;253.93;194.97;;;27.20;70.30;;;;;;5095204;28;20447;-89
2022/07/20 13:23:43;;;;;;;250.53;186.60;;;27.20;70.30;;;;;;5095628;28;20440;-89
2022/07/20 13:26:10;;;;;;;244.60;189.50;;;27.20;70.30;;;;;;5094146;28;20957;-89
2022/07/20 13:28:37;;;;;;;249.63;181.60;;;27.20;70.30;;;;;;5077023;28;20471;-90
2022/07/20 13:31:05;;;;;;;234.30;178.90;;;27.20;70.30;;;;;;5086755;28;20475;-90
2022/07/20 13:33:32;;;;;;;239.70;180.90;;;27.20;70.30;;;;;;5094806;28;20466;-90
2022/07/20 13:35:59;;;;;;;234.70;173.07;;;27.20;70.30;;;;;;5095130;28;20452;-90
2022/07/20 13:38:26;;;;;;;218.90;167.93;;;27.20;70.30;;;;;;5094508;28;20489;-89
2022/07/20 13:40:55;;;;;;;230.40;167.37;;;27.20;70.30;;;;;;5094908;28;20450;-88
2022/07/20 13:43:21;;;;;;;217.83;161.77;;;27.20;70.30;;;;;;5094802;28;20531;-89
2022/07/20 13:45:49;;;;;;;217.33;161.40;;;27.20;70.30;;;;;;5094988;28;20540;-89
2022/07/20 13:48:17;;;;;;;206.80;155.33;;;27.20;70.30;;;;;;5094958;28;20459;-90
2022/07/20 13:50:44;;;;;;;204.40;153.77;;;27.20;70.30;;;;;;5095079;28;20444;-91
2022/07/20 13:53:11;;;;;;;190.50;141.00;;;27.20;70.30;;;;;;5094865;28;20564;-91
2022/07/20 13:55:38;;;;;;;188.30;149.03;;;27.20;70.40;;;;;;5094758;28;20535;-90
2022/07/20 13:58:05;;;;;;;170.60;138.83;;;27.20;70.30;;;;;;5094739;28;20484;-92
2022/07/20 14:00:32;;;;;;;177.07;132.90;;;27.20;70.20;;;;;;5094698;28;20539;-88
2022/07/20 14:02:58;;;;;;;180.67;133.87;;;27.30;70.20;;;;;;5074487;28;20531;-92
2022/07/20 14:05:27;;;;;;;163.73;121.97;;;27.20;70.00;;;;;;5074131;28;20468;-91
2022/07/20 14:07:54;;;;;;;158.93;121.10;;;27.20;70.10;;;;;;5074210;28;21186;-91
2022/07/20 14:10:21;;;;;;;166.93;120.67;;;27.20;70.20;;;;;;5074248;28;20520;-90
2022/07/20 14:12:48;;;;;;;167.57;117.67;;;27.20;70.20;;;;;;5076372;28;20820;-90
2022/07/20 14:15:16;;;;;;;154.80;116.63;;;27.20;70.30;;;;;;5073805;28;20619;-89
2022/07/20 14:17:44;;;;;;;148.80;110.43;;;27.20;70.40;;;;;;5073961;28;20488;-89
2022/07/20 14:20:12;;;;;;;155.33;110.77;;;27.20;70.40;;;;;;5074506;28;20571;-88
2022/07/20 14:22:41;;;;;;;150.27;112.47;;;27.20;70.50;;;;;;5073922;28;20447;-89
2022/07/20 14:25:09;;;;;;;125.60;98.83;;;27.30;70.60;;;;;;5074063;28;20532;-89
2022/07/20 14:27:36;;;;;;;127.13;95.30;;;27.20;70.60;;;;;;5074055;28;20536;-91
2022/07/20 14:30:06;;;;;;;127.73;97.40;;;27.30;70.70;;;;;;5077077;28;20556;-85
2022/07/20 14:32:33;;;;;;;111.83;83.17;;;27.20;70.60;;;;;;5077851;28;20428;-88
2022/07/20 14:35:00;;;;;;;118.07;85.57;;;27.20;70.50;;;;;;5076720;28;20531;-88
2022/07/20 14:37:27;;;;;;;127.83;95.07;;;27.20;70.60;;;;;;5093836;28;20586;-87
2022/07/20 14:39:55;;;;;;;120.00;85.60;;;27.30;70.70;;;;;;5094348;28;20471;-89
2022/07/20 14:42:22;;;;;;;117.30;87.00;;;27.30;70.70;;;;;;5094269;28;20563;-88
2022/07/20 14:44:49;;;;;;;113.83;88.40;;;27.30;70.80;;;;;;5098522;28;20475;-90
2022/07/20 14:47:16;;;;;;;107.93;80.67;;;27.30;70.70;;;;;;5119039;28;20428;-89
2022/07/20 14:49:42;;;;;;;105.60;79.83;;;27.30;70.70;;;;;;5118888;28;20424;-89
2022/07/20 14:52:09;;;;;;;111.23;80.67;;;27.30;70.70;;;;;;5111172;28;20455;-90
2022/07/20 14:54:36;;;;;;;101.57;75.70;;;27.30;71.50;;;;;;5096048;28;20479;-89
2022/07/20 14:57:05;;;;;;;98.57;75.30;;;27.30;70.70;;;;;;5100255;28;20508;-89
2022/07/20 14:59:32;;;;;;;97.30;75.67;;;27.30;70.80;;;;;;5094329;28;20540;-89
2022/07/20 15:01:59;;;;;;;100.77;72.47;;;27.30;70.70;;;;;;5095425;28;20472;-88
2022/07/20 15:04:26;;;;;;;67.93;51.13;;;27.30;70.80;;;;;;5093699;28;20842;-86
2022/07/20 15:06:52;;;;;;;90.90;64.67;;;27.30;70.70;;;;;;5093906;28;21248;-89
2022/07/20 15:09:19;;;;;;;99.07;61.40;;;27.30;70.80;;;;;;5093815;28;20999;-90
2022/07/20 15:11:47;;;;;;;89.87;64.70;;;27.30;70.80;;;;;;5090113;28;20457;-90
2022/07/20 15:14:15;;;;;;;79.23;59.87;;;27.30;70.80;;;;;;5077910;28;20443;-87
2022/07/20 15:16:42;;;;;;;80.90;57.53;;;27.30;70.70;;;;;;5106080;28;20440;-90
2022/07/20 15:19:09;;;;;;;75.57;57.53;;;27.30;70.90;;;;;;5093416;28;20527;-91
2022/07/20 15:21:36;;;;;;;70.47;54.07;;;27.30;70.80;;;;;;5093740;28;20497;-90
2022/07/20 15:24:04;;;;;;;77.53;54.00;;;27.30;70.70;;;;;;5093555;28;20543;-90
2022/07/20 15:26:31;;;;;;;80.87;58.80;;;27.30;70.70;;;;;;5093615;28;20805;-90
2022/07/20 15:28:58;;;;;;;71.37;53.47;;;27.30;70.60;;;;;;5093687;28;20475;-91
2022/07/20 15:31:27;;;;;;;64.43;51.10;;;27.30;70.70;;;;;;5093100;28;20450;-90
2022/07/20 15:33:54;;;;;;;75.87;53.70;;;27.30;70.60;;;;;;5093065;28;20523;-85
2022/07/20 15:36:20;;;;;;;55.93;44.20;;;27.30;70.60;;;;;;5092411;28;20440;-89
2022/07/20 15:38:47;;;;;;;57.03;46.07;;;27.30;70.60;;;;;;5092640;28;20525;-86
2022/07/20 15:41:14;;;;;;;52.50;37.50;;;27.30;70.70;;;;;;5092711;28;20548;-86
2022/07/20 15:43:41;;;;;;;61.27;44.57;;;27.30;70.70;;;;;;5092713;28;20991;-86
2022/07/20 15:46:14;;;;;;;49.27;39.30;;;27.30;70.40;;;;;;5093160;28;20475;-86
2022/07/20 15:48:44;;;;;;;53.67;42.40;;;27.30;70.40;;;;;;5095079;28;20459;-86
2022/07/20 15:51:11;;;;;;;51.27;40.90;;;27.30;70.30;;;;;;5097468;28;20781;-89
2022/07/20 15:53:38;;;;;;;50.33;39.77;;;27.30;70.20;;;;;;5097095;28;20432;-86
2022/07/20 15:56:07;;;;;;;42.73;37.77;;;27.20;70.00;;;;;;5090010;28;20922;-89
2022/07/20 15:58:34;;;;;;;47.10;37.57;;;27.20;70.00;;;;;;5097467;28;20483;-90
2022/07/20 16:01:01;;;;;;;44.40;36.87;;;27.20;70.10;;;;;;5096562;28;20493;-87
2022/07/20 16:03:28;;;;;;;44.63;33.73;;;27.20;70.00;;;;;;5096775;28;20467;-88
2022/07/20 16:05:57;;;;;;;42.13;31.47;;;27.20;70.00;;;;;;5096675;28;20510;-84
2022/07/20 16:08:24;;;;;;;38.63;28.93;;;27.20;70.10;;;;;;5096536;28;20439;-82
2022/07/20 16:10:50;;;;;;;33.40;26.20;;;27.20;70.20;;;;;;5097053;28;20488;-82
2022/07/20 16:13:17;;;;;;;32.77;24.73;;;27.20;70.50;;;;;;5096535;28;20458;-82
2022/07/20 16:15:44;;;;;;;27.80;23.10;;;27.20;70.60;;;;;;5096696;28;20471;-87
2022/07/20 16:18:11;;;;;;;27.60;22.97;;;27.30;70.80;;;;;;5096428;28;20479;-83
2022/07/20 16:20:38;;;;;;;27.10;21.97;;;27.20;70.90;;;;;;5096442;28;20440;-88
2022/07/20 16:23:06;;;;;;;25.90;23.23;;;27.20;71.00;;;;;;5088052;28;20527;-82
2022/07/20 16:25:33;;;;;;;31.30;24.17;;;27.20;70.90;;;;;;5095986;28;20539;-83